createdAt,value
2022-09-27T00:01:56.655Z,100891.31
2022-09-27T00:04:24.754Z,100891.63
2022-09-27T00:06:55.394Z,100886.47
2022-09-27T00:09:23.472Z,100873.88
2022-09-27T00:11:52.547Z,100893.44
2022-09-27T00:14:20.845Z,100891.22
2022-09-27T00:16:50.141Z,100898.56
2022-09-27T00:19:19.323Z,100901.66
2022-09-27T00:21:48.067Z,100891.25
2022-09-27T00:24:18.655Z,100885.75
2022-09-27T00:26:47.214Z,100892.25
2022-09-27T00:29:16.471Z,100889.94
2022-09-27T00:31:44.764Z,100880.56
2022-09-27T00:34:15.585Z,100884.88
2022-09-27T00:36:43.588Z,100886.84
2022-09-27T00:39:11.606Z,100900.91
2022-09-27T00:41:41.305Z,100892.88
2022-09-27T00:44:48.240Z,100886.53
2022-09-27T00:47:19.627Z,100878.69
2022-09-27T00:49:49.529Z,100873.47
2022-09-27T00:52:18.383Z,100866.03
2022-09-27T00:54:48.256Z,100851.78
2022-09-27T00:57:17.661Z,100865.50
2022-09-27T00:59:47.011Z,100873.22
2022-09-27T01:02:16.187Z,100879.88
2022-09-27T01:04:44.205Z,100874.88
2022-09-27T01:07:12.159Z,100867.41
2022-09-27T01:09:40.258Z,100877.75
2022-09-27T01:12:10.446Z,100872.09
2022-09-27T01:14:44.248Z,100881.25
2022-09-27T01:17:20.299Z,100854.94
2022-09-27T01:20:09.027Z,100864.00
2022-09-27T01:22:37.778Z,100863.97
2022-09-27T01:25:29.819Z,100858.44
2022-09-27T01:28:14.861Z,100856.06
2022-09-27T01:30:46.601Z,100846.56
2022-09-27T01:33:25.126Z,100861.56
2022-09-27T01:36:10.651Z,100856.22
2022-09-27T01:38:44.326Z,100858.38
2022-09-27T01:41:20.179Z,100855.03
2022-09-27T01:44:00.652Z,100838.63
2022-09-27T01:46:37.560Z,100837.84
2022-09-27T01:49:19.407Z,100838.25
2022-09-27T01:51:49.434Z,100844.03
2022-09-27T01:54:21.239Z,100839.22
2022-09-27T01:57:08.354Z,100858.03
2022-09-27T01:59:44.010Z,100856.22
2022-09-27T02:02:41.378Z,100853.22
2022-09-27T02:05:30.859Z,100844.22
2022-09-27T02:08:06.507Z,100850.91
2022-09-27T02:10:39.359Z,100850.44
2022-09-27T02:13:17.071Z,100855.38
2022-09-27T02:15:50.750Z,100846.69
2022-09-27T02:18:42.043Z,100837.19
2022-09-27T02:21:10.141Z,100840.91
2022-09-27T02:23:40.293Z,100834.19
2022-09-27T02:26:14.852Z,100839.22
2022-09-27T02:28:44.577Z,100831.75
2022-09-27T02:31:24.017Z,100825.19
2022-09-27T02:33:56.599Z,100823.84
2022-09-27T02:36:27.391Z,100820.16
2022-09-27T02:38:55.608Z,100832.50
2022-09-27T02:41:24.543Z,100830.78
2022-09-27T02:43:54.499Z,100832.50
2022-09-27T02:46:45.120Z,100827.94
2022-09-27T02:49:22.280Z,100804.94
2022-09-27T02:52:11.157Z,100821.03
2022-09-27T02:54:42.297Z,100794.25
2022-09-27T02:57:35.206Z,100792.13
2022-09-27T03:00:32.793Z,100786.13
2022-09-27T03:03:26.475Z,100798.28
2022-09-27T03:06:03.810Z,100798.59
2022-09-27T03:08:31.852Z,100794.09
2022-09-27T03:11:00.985Z,100791.25
2022-09-27T03:13:29.208Z,100789.59
2022-09-27T03:16:01.820Z,100776.50
2022-09-27T03:18:38.323Z,100772.59
2022-09-27T03:21:26.480Z,100782.56
2022-09-27T03:23:54.638Z,100773.88
2022-09-27T03:26:22.865Z,100784.34
2022-09-27T03:28:50.914Z,100773.88
2022-09-27T03:31:19.126Z,100776.03
2022-09-27T03:34:04.239Z,100761.00
2022-09-27T03:36:33.702Z,100757.16
2022-09-27T03:39:01.926Z,100768.53
2022-09-27T03:41:31.060Z,100758.59
2022-09-27T03:43:59.894Z,100754.16
2022-09-27T03:46:28.252Z,100754.41
2022-09-27T03:48:56.786Z,100748.56
2022-09-27T03:51:24.767Z,100759.38
2022-09-27T03:53:54.256Z,100750.41
2022-09-27T03:56:25.056Z,100759.50
2022-09-27T03:59:01.015Z,100749.34
2022-09-27T04:01:30.290Z,100746.19
2022-09-27T04:04:11.408Z,100734.81
2022-09-27T04:06:40.095Z,100717.09
2022-09-27T04:09:09.576Z,100731.94
2022-09-27T04:11:56.284Z,100729.81
2022-09-27T04:14:25.626Z,100724.75
2022-09-27T04:17:17.415Z,100742.84
2022-09-27T04:20:08.832Z,100744.25
2022-09-27T04:22:40.672Z,100723.41
2022-09-27T04:25:11.213Z,100741.09
2022-09-27T04:27:43.291Z,100746.19
2022-09-27T04:30:12.278Z,100735.94
2022-09-27T04:32:58.590Z,100739.66
2022-09-27T04:36:08.174Z,100741.69
2022-09-27T04:38:39.996Z,100722.16
2022-09-27T04:41:10.548Z,100720.88
2022-09-27T04:43:41.292Z,100728.38
2022-09-27T04:46:09.522Z,100703.97
2022-09-27T04:48:38.307Z,100734.94
2022-09-27T04:51:07.451Z,100709.97
2022-09-27T04:53:35.897Z,100713.88
2022-09-27T04:56:06.171Z,100710.31
2022-09-27T04:58:36.560Z,100713.25
2022-09-27T05:01:04.898Z,100731.59
2022-09-27T05:03:44.194Z,100716.78
2022-09-27T05:06:16.713Z,100709.72
2022-09-27T05:08:45.994Z,100722.84
2022-09-27T05:11:34.283Z,100719.22
2022-09-27T05:14:21.256Z,100715.09
2022-09-27T05:17:09.972Z,100719.81
2022-09-27T05:20:04.016Z,100719.59
2022-09-27T05:22:51.641Z,100694.94
2022-09-27T05:25:19.770Z,100704.75
2022-09-27T05:27:48.247Z,100692.50
2022-09-27T05:30:18.128Z,100711.16
2022-09-27T05:32:53.237Z,100710.81
2022-09-27T05:35:27.508Z,100708.44
2022-09-27T05:37:58.339Z,100714.44
2022-09-27T05:40:44.678Z,100706.63
2022-09-27T05:43:13.028Z,100698.63
2022-09-27T05:45:43.118Z,100702.41
2022-09-27T05:48:14.132Z,100695.38
2022-09-27T05:50:53.189Z,100684.81
2022-09-27T05:53:21.323Z,100671.94
2022-09-27T05:55:49.801Z,100701.91
2022-09-27T05:58:21.080Z,100684.31
2022-09-27T06:01:08.009Z,100683.28
2022-09-27T06:04:10.389Z,100698.56
2022-09-27T06:06:38.473Z,100681.91
2022-09-27T06:09:11.492Z,100688.09
2022-09-27T06:11:43.038Z,100680.78
2022-09-27T06:14:14.456Z,100674.44
2022-09-27T06:17:01.987Z,100673.72
2022-09-27T06:19:36.293Z,100685.00
2022-09-27T06:22:04.550Z,100679.19
2022-09-27T06:24:53.076Z,100685.19
2022-09-27T06:27:26.358Z,100672.75
2022-09-27T06:30:06.584Z,100670.13
2022-09-27T06:32:50.349Z,100692.13
2022-09-27T06:35:25.275Z,100690.16
2022-09-27T06:37:53.775Z,100678.81
2022-09-27T06:40:22.530Z,100665.53
2022-09-27T06:43:03.339Z,100682.28
2022-09-27T06:45:54.965Z,100664.06
2022-09-27T06:48:34.414Z,100663.72
2022-09-27T06:51:13.985Z,100658.16
2022-09-27T06:53:42.826Z,100662.03
2022-09-27T06:56:11.205Z,100662.78
2022-09-27T06:59:15.861Z,100672.94
2022-09-27T07:01:44.170Z,100655.03
2022-09-27T07:04:32.943Z,100651.84
2022-09-27T07:07:06.224Z,100651.88
2022-09-27T07:09:41.607Z,100643.44
2022-09-27T07:12:09.655Z,100653.28
2022-09-27T07:14:38.195Z,100647.31
2022-09-27T07:17:06.715Z,100645.31
2022-09-27T07:19:40.402Z,100647.88
2022-09-27T07:22:09.700Z,100661.72
2022-09-27T07:24:38.131Z,100663.94
2022-09-27T07:27:09.188Z,100653.88
2022-09-27T07:29:38.620Z,100661.63
2022-09-27T07:32:06.710Z,100643.06
2022-09-27T07:34:34.995Z,100657.03
2022-09-27T07:37:06.538Z,100640.22
2022-09-27T07:39:39.737Z,100654.78
2022-09-27T07:42:08.341Z,100650.81
2022-09-27T07:44:40.255Z,100638.63
2022-09-27T07:47:20.222Z,100649.88
2022-09-27T07:50:10.879Z,100649.09
2022-09-27T07:53:01.264Z,100649.00
2022-09-27T07:55:54.070Z,100651.59
2022-09-27T07:58:25.810Z,100650.59
2022-09-27T08:01:16.288Z,100654.09
2022-09-27T08:03:45.662Z,100653.84
2022-09-27T08:06:18.007Z,100650.44
2022-09-27T08:08:48.748Z,100668.53
2022-09-27T08:11:21.944Z,100648.19
2022-09-27T08:13:53.081Z,100648.06
2022-09-27T08:16:27.126Z,100650.25
2022-09-27T08:19:15.193Z,100657.59
2022-09-27T08:22:02.506Z,100661.09
2022-09-27T08:24:47.280Z,100663.09
2022-09-27T08:27:23.852Z,100658.59
2022-09-27T08:29:58.127Z,100662.09
2022-09-27T08:32:26.390Z,100662.53
2022-09-27T08:34:54.671Z,100646.94
2022-09-27T08:37:30.200Z,100665.59
2022-09-27T08:40:00.006Z,100660.59
2022-09-27T08:42:35.455Z,100647.38
2022-09-27T08:45:08.373Z,100649.63
2022-09-27T08:47:38.611Z,100652.66
2022-09-27T08:50:19.404Z,100667.06
2022-09-27T08:52:54.461Z,100626.91
2022-09-27T08:55:29.687Z,100669.38
2022-09-27T08:58:02.124Z,100653.28
2022-09-27T09:00:35.695Z,100653.63
2022-09-27T09:03:05.147Z,100635.38
2022-09-27T09:05:36.598Z,100647.63
2022-09-27T09:08:20.422Z,100652.25
2022-09-27T09:11:11.346Z,100641.91
2022-09-27T09:14:04.227Z,100655.47
2022-09-27T09:16:42.514Z,100661.13
2022-09-27T09:19:31.810Z,100671.59
2022-09-27T09:22:32.131Z,100644.34
2022-09-27T09:25:11.203Z,100635.47
2022-09-27T09:27:43.789Z,100644.78
2022-09-27T09:30:22.683Z,100640.72
2022-09-27T09:33:17.687Z,100629.22
2022-09-27T09:35:49.551Z,100659.66
2022-09-27T09:38:22.394Z,100626.28
2022-09-27T09:40:53.250Z,100618.38
2022-09-27T09:43:27.714Z,100629.34
2022-09-27T09:45:58.973Z,100622.38
2022-09-27T09:48:31.947Z,100619.25
2022-09-27T09:51:02.584Z,100609.03
2022-09-27T09:53:38.153Z,100628.19
2022-09-27T09:56:13.386Z,100633.00
2022-09-27T09:58:45.215Z,100635.91
2022-09-27T10:01:23.727Z,100623.00
2022-09-27T10:03:52.046Z,100632.31
2022-09-27T10:06:20.696Z,100611.13
2022-09-27T10:08:50.124Z,100620.03
2022-09-27T10:11:32.863Z,100619.63
2022-09-27T10:14:31.735Z,100605.38
2022-09-27T10:17:05.641Z,100598.38
2022-09-27T10:19:38.020Z,100595.13
2022-09-27T10:22:13.556Z,100596.38
2022-09-27T10:24:56.194Z,100592.28
2022-09-27T10:27:45.976Z,100589.75
2022-09-27T10:30:25.983Z,100582.25
2022-09-27T10:32:56.900Z,100593.09
2022-09-27T10:35:43.685Z,100593.34
2022-09-27T10:38:23.308Z,100578.69
2022-09-27T10:40:56.779Z,100567.78
2022-09-27T10:43:33.058Z,100572.81
2022-09-27T10:46:23.734Z,100555.94
2022-09-27T10:49:12.976Z,100574.72
2022-09-27T10:51:44.132Z,100560.91
2022-09-27T10:54:21.513Z,100537.81
2022-09-27T10:57:02.487Z,100540.72
2022-09-27T10:59:34.184Z,100560.34
2022-09-27T11:02:08.352Z,100563.00
2022-09-27T11:04:42.671Z,100513.97
2022-09-27T11:07:17.046Z,100545.78
2022-09-27T11:09:56.148Z,100549.63
2022-09-27T11:12:27.415Z,100550.06
2022-09-27T11:15:00.642Z,100550.63
2022-09-27T11:17:35.916Z,100544.03
2022-09-27T11:20:18.249Z,100549.53
2022-09-27T11:23:21.452Z,100550.50
2022-09-27T11:26:08.534Z,100566.25
2022-09-27T11:28:43.484Z,100562.44
2022-09-27T11:31:35.664Z,100537.97
2022-09-27T11:34:32.968Z,100547.78
2022-09-27T11:37:16.884Z,100540.16
2022-09-27T11:39:58.409Z,100525.47
2022-09-27T11:42:40.185Z,100533.63
2022-09-27T11:45:56.584Z,100549.19
2022-09-27T11:48:39.902Z,100557.63
2022-09-27T11:51:28.020Z,100554.59
2022-09-27T11:54:07.781Z,100542.78
2022-09-27T11:56:44.725Z,100545.16
2022-09-27T11:59:42.932Z,100548.91
2022-09-27T12:02:22.454Z,100535.97
2022-09-27T12:05:11.130Z,100542.72
2022-09-27T12:07:49.646Z,100541.66
2022-09-27T12:10:18.683Z,100539.84
2022-09-27T12:12:51.706Z,100547.16
2022-09-27T12:15:26.917Z,100550.09
2022-09-27T12:17:58.941Z,100546.34
2022-09-27T12:20:37.886Z,100543.13
2022-09-27T12:23:14.237Z,100533.47
2022-09-27T12:26:04.036Z,100506.44
2022-09-27T12:28:41.640Z,100539.28
2022-09-27T12:31:28.873Z,100527.31
2022-09-27T12:34:05.497Z,100501.47
2022-09-27T12:36:38.321Z,100520.38
2022-09-27T12:39:14.904Z,100516.88
2022-09-27T12:41:51.824Z,100510.59
2022-09-27T12:44:35.985Z,100503.22
2022-09-27T12:47:07.075Z,100498.63
2022-09-27T12:49:43.837Z,100487.47
2022-09-27T12:52:14.385Z,100485.69
2022-09-27T12:55:03.625Z,100498.19
2022-09-27T12:57:57.099Z,100482.44
2022-09-27T13:00:36.561Z,100492.19
2022-09-27T13:06:36.976Z,100470.06
2022-09-27T13:09:56.795Z,100474.78
2022-09-27T13:12:50.937Z,100452.91
2022-09-27T13:15:25.663Z,100479.56
2022-09-27T13:18:09.412Z,100478.63
2022-09-27T13:20:50.239Z,100462.81
2022-09-27T13:23:54.719Z,100469.59
2022-09-27T13:26:52.621Z,100470.84
2022-09-27T13:29:41.908Z,100464.38
2022-09-27T13:32:29.332Z,100465.13
2022-09-27T13:35:21.161Z,100460.47
2022-09-27T13:38:26.529Z,100454.41
2022-09-27T13:41:22.515Z,100462.97
2022-09-27T13:44:13.131Z,100445.91
2022-09-27T13:47:13.060Z,100462.47
2022-09-27T13:50:22.543Z,100439.78
2022-09-27T13:53:17.065Z,100446.78
2022-09-27T13:55:51.971Z,100438.50
2022-09-27T13:59:01.237Z,100425.81
2022-09-27T14:02:27.029Z,100421.00
2022-09-27T14:05:09.318Z,100454.63
2022-09-27T14:07:49.390Z,100441.09
2022-09-27T14:13:27.040Z,100448.84
2022-09-27T14:16:21.722Z,100419.91
2022-09-27T14:19:19.896Z,100444.03
2022-09-27T14:22:23.968Z,100451.69
2022-09-27T14:25:29.904Z,100450.03
2022-09-27T14:28:27.222Z,100426.34
2022-09-27T14:31:38.123Z,100424.13
2022-09-27T14:34:59.514Z,100411.53
2022-09-27T14:37:43.314Z,100418.13
2022-09-27T14:40:28.149Z,100411.69
2022-09-27T14:43:09.361Z,100418.31
2022-09-27T14:45:42.681Z,100421.53
2022-09-27T14:48:24.918Z,100412.75
2022-09-27T14:51:31.496Z,100421.91
2022-09-27T14:54:11.918Z,100417.63
2022-09-27T14:57:09.872Z,100412.28
2022-09-27T15:00:36.472Z,100406.38
2022-09-27T15:03:20.715Z,100387.22
2022-09-27T15:05:59.736Z,100393.66
2022-09-27T15:08:59.809Z,100387.00
2022-09-27T15:11:35.355Z,100395.69
2022-09-27T15:14:22.163Z,100401.91
2022-09-27T15:17:01.864Z,100414.38
2022-09-27T15:19:46.276Z,100372.44
2022-09-27T15:25:37.135Z,100395.03
2022-09-27T15:28:08.768Z,100391.13
2022-09-27T15:30:39.853Z,100389.13
2022-09-27T15:33:33.047Z,100393.06
2022-09-27T15:36:10.989Z,100346.09
2022-09-27T15:38:50.777Z,100368.28
2022-09-27T15:42:13.298Z,100324.63
2022-09-27T15:45:01.349Z,100355.75
2022-09-27T15:48:09.771Z,100362.13
2022-09-27T15:50:52.396Z,100351.06
2022-09-27T15:53:57.705Z,100358.50
2022-09-27T15:56:33.846Z,100326.75
2022-09-27T15:59:29.403Z,100350.06
2022-09-27T16:02:08.592Z,100339.28
2022-09-27T16:04:44.960Z,100362.31
2022-09-27T16:07:16.516Z,100350.81
2022-09-27T16:09:52.275Z,100345.38
2022-09-27T16:12:24.656Z,100345.06
2022-09-27T16:14:57.149Z,100351.06
2022-09-27T16:17:28.162Z,100343.88
2022-09-27T16:20:07.573Z,100350.50
2022-09-27T16:22:49.795Z,100341.16
2022-09-27T16:25:29.595Z,100350.72
2022-09-27T16:28:04.332Z,100316.16
2022-09-27T16:30:34.564Z,100338.09
2022-09-27T16:33:10.408Z,100326.66
2022-09-27T16:35:44.771Z,100318.75
2022-09-27T16:38:20.007Z,100313.41
2022-09-27T16:40:51.601Z,100320.03
2022-09-27T16:43:23.441Z,100324.63
2022-09-27T16:46:12.329Z,100303.09
2022-09-27T16:48:54.019Z,100330.25
2022-09-27T17:04:29.060Z,100295.16
2022-09-27T17:07:09.032Z,100304.38
2022-09-27T17:09:46.663Z,100313.59
2022-09-27T17:12:23.726Z,100303.25
2022-09-27T17:14:56.074Z,100309.53
2022-09-27T17:17:25.871Z,100281.63
2022-09-27T17:19:55.310Z,100294.41
2022-09-27T17:22:23.403Z,100278.19
2022-09-27T17:24:53.021Z,100290.72
2022-09-27T17:27:25.738Z,100292.38
2022-09-27T17:29:54.045Z,100288.34
2022-09-27T17:32:24.237Z,100276.59
2022-09-27T17:34:52.448Z,100252.06
2022-09-27T17:37:24.821Z,100267.03
2022-09-27T17:39:52.879Z,100252.19
2022-09-27T17:42:20.955Z,100263.78
2022-09-27T17:44:48.995Z,100277.78
2022-09-27T17:47:34.661Z,100267.72
2022-09-27T17:50:19.901Z,100276.13
2022-09-27T17:52:49.585Z,100295.03
2022-09-27T17:55:17.782Z,100301.66
2022-09-27T17:57:47.952Z,100299.19
2022-09-27T18:00:16.482Z,100307.44
2022-09-27T18:02:45.059Z,100295.50
2022-09-27T18:05:13.231Z,100312.03
2022-09-27T18:07:43.730Z,100304.59
2022-09-27T18:10:13.309Z,100268.09
2022-09-27T18:12:43.139Z,100286.69
2022-09-27T18:15:11.303Z,100284.63
2022-09-27T18:17:39.321Z,100294.88
2022-09-27T18:20:08.151Z,100284.94
2022-09-27T18:22:36.553Z,100271.25
2022-09-27T18:25:05.475Z,100275.16
2022-09-27T18:27:34.880Z,100280.31
2022-09-27T18:30:03.463Z,100270.44
2022-09-27T18:32:31.674Z,100279.16
2022-09-27T18:34:59.757Z,100289.25
2022-09-27T18:37:28.668Z,100277.00
2022-09-27T18:39:56.712Z,100255.75
2022-09-27T18:42:26.074Z,100286.69
2022-09-27T18:44:55.514Z,100285.94
2022-09-27T18:47:24.204Z,100282.84
2022-09-27T18:49:52.304Z,100290.16
2022-09-27T18:52:20.579Z,100269.13
2022-09-27T18:54:49.239Z,100285.69
2022-09-27T18:57:17.315Z,100281.19
2022-09-27T18:59:48.153Z,100271.69
2022-09-27T19:02:17.692Z,100273.66
2022-09-27T19:04:45.753Z,100274.09
2022-09-27T19:07:13.854Z,100269.06
2022-09-27T19:09:41.862Z,100267.88
2022-09-27T19:12:10.434Z,100288.84
2022-09-27T19:14:39.866Z,100285.09
2022-09-27T19:17:07.920Z,100277.66
2022-09-27T19:19:37.375Z,100271.09
2022-09-27T19:22:05.610Z,100285.28
2022-09-27T19:24:33.652Z,100283.63
2022-09-27T19:27:01.691Z,100284.25
2022-09-27T19:29:29.770Z,100292.53
2022-09-27T19:31:57.866Z,100298.28
2022-09-27T19:34:26.106Z,100301.19
2022-09-27T19:36:57.887Z,100298.09
2022-09-27T19:39:26.113Z,100293.81
2022-09-27T19:41:56.563Z,100300.38
2022-09-27T19:44:26.059Z,100292.66
2022-09-27T19:46:54.137Z,100298.28
2022-09-27T19:49:22.189Z,100300.28
2022-09-27T19:51:52.094Z,100306.75
2022-09-27T19:54:22.441Z,100301.41
2022-09-27T19:56:50.683Z,100299.22
2022-09-27T19:59:18.868Z,100306.41
2022-09-27T20:01:47.059Z,100303.06
2022-09-27T20:04:15.214Z,100301.06
2022-09-27T20:06:43.396Z,100311.34
2022-09-27T20:09:11.431Z,100307.03
2022-09-27T20:11:42.115Z,100308.31
2022-09-27T20:14:10.375Z,100291.47
2022-09-27T20:16:41.395Z,100311.88
2022-09-27T20:19:10.437Z,100295.03
2022-09-27T20:21:38.713Z,100312.34
2022-09-27T20:24:07.120Z,100304.69
2022-09-27T20:26:36.571Z,100311.88
2022-09-27T20:29:06.879Z,100320.91
2022-09-27T20:31:37.107Z,100313.91
2022-09-27T20:34:05.282Z,100313.28
2022-09-27T20:36:34.109Z,100308.56
2022-09-27T20:39:03.539Z,100311.25
2022-09-27T20:41:32.512Z,100316.47
2022-09-27T20:44:03.364Z,100325.91
2022-09-27T20:46:32.986Z,100325.91
2022-09-27T20:49:03.558Z,100316.34
2022-09-27T20:51:33.344Z,100324.06
2022-09-27T20:54:01.430Z,100329.41
2022-09-27T20:56:30.458Z,100324.44
2022-09-27T20:58:59.427Z,100322.47
2022-09-27T21:01:28.240Z,100322.28
2022-09-27T21:03:58.411Z,100314.06
2022-09-27T21:06:27.306Z,100306.03
2022-09-27T21:08:55.426Z,100296.38
2022-09-27T21:11:23.807Z,100299.59
2022-09-27T21:13:52.481Z,100289.25
2022-09-27T21:16:22.366Z,100310.59
2022-09-27T21:18:51.261Z,100301.09
2022-09-27T21:21:20.777Z,100299.44
2022-09-27T21:23:49.157Z,100305.44
2022-09-27T21:26:18.162Z,100301.19
2022-09-27T21:28:46.829Z,100312.03
2022-09-27T21:31:20.116Z,100312.88
2022-09-27T21:33:50.412Z,100312.28
2022-09-27T21:36:18.466Z,100307.97
2022-09-27T21:38:47.947Z,100325.53
2022-09-27T21:41:16.502Z,100321.84
2022-09-27T21:43:45.339Z,100320.84
2022-09-27T21:46:14.125Z,100330.34
2022-09-27T21:48:43.602Z,100317.91
2022-09-27T21:51:13.037Z,100290.00
2022-09-27T21:53:41.807Z,100306.31
2022-09-27T21:56:11.767Z,100319.69
2022-09-27T21:58:40.608Z,100298.41
2022-09-27T22:01:09.720Z,100322.38
2022-09-27T22:03:37.991Z,100314.97
2022-09-27T22:06:06.723Z,100320.69
2022-09-27T22:08:34.743Z,100321.53
2022-09-27T22:11:02.751Z,100315.72
2022-09-27T22:13:32.622Z,100310.00
2022-09-27T22:16:04.014Z,100316.84
2022-09-27T22:18:34.812Z,100317.03
2022-09-27T22:21:04.074Z,100318.69
2022-09-27T22:23:32.192Z,100313.88
2022-09-27T22:26:00.349Z,100327.53
2022-09-27T22:28:28.379Z,100313.69
2022-09-27T22:30:57.786Z,100336.34
2022-09-27T22:33:25.835Z,100308.72
2022-09-27T22:35:53.922Z,100314.59
2022-09-27T22:38:21.990Z,100322.19
2022-09-27T22:40:55.114Z,100340.06
2022-09-27T22:43:23.334Z,100331.00
2022-09-27T22:45:51.462Z,100313.16
2022-09-27T22:48:20.921Z,100340.06
2022-09-27T22:50:48.944Z,100339.66
2022-09-27T22:53:19.375Z,100348.34
2022-09-27T22:56:01.859Z,100338.22
2022-09-27T22:58:32.113Z,100340.44
2022-09-27T23:01:00.322Z,100342.84
2022-09-27T23:03:30.175Z,100351.03
2022-09-27T23:06:03.095Z,100353.91
2022-09-27T23:08:35.279Z,100345.88
2022-09-27T23:11:04.552Z,100351.13
2022-09-27T23:13:33.511Z,100348.44
2022-09-27T23:16:02.837Z,100350.47
2022-09-27T23:18:33.291Z,100329.13
2022-09-27T23:21:03.599Z,100344.69
2022-09-27T23:23:31.982Z,100340.19
2022-09-27T23:26:00.995Z,100342.84
2022-09-27T23:28:29.167Z,100347.78
2022-09-27T23:30:57.331Z,100335.09
2022-09-27T23:33:25.413Z,100337.41
2022-09-27T23:35:54.835Z,100324.84
2022-09-27T23:38:23.022Z,100333.66
2022-09-27T23:40:51.203Z,100331.00
2022-09-27T23:43:19.438Z,100344.13
2022-09-27T23:45:47.457Z,100326.81
2022-09-27T23:48:15.501Z,100325.50
2022-09-27T23:50:44.231Z,100319.91
2022-09-27T23:53:13.686Z,100317.31
2022-09-27T23:55:41.738Z,100316.88
2022-09-27T23:58:10.624Z,100323.47
